PAUNPABT

Guest
Details From PAUN - Unalakleet
To PABT - Bettles
Flight Number -
Tags Generated
Created
Modified
Stats Distance 294 nm / 544 km
Max Altitude 0 ft / 0 m
Waypoints 3
Social Downloads 0
Likes 0
Share VATSIM

Download

Looking for another format? Having issues loading an existing format? Contact us
Advertisement - Login to hide

Notes

Generated

Route

PAUN R0234 PABT

ID Type Via Altitude Latitude Longitude Leg Dist Tot Dist Heading (true) Name
O PAUN APT - 0 ft / 0 m 63.88345˚ -160.79903˚ - 0 nm - -
R0234 FIX - 0 ft / 0 m 66.90794˚ -151.53869˚ 293 nm 293 nm 48° / 56° -
O PABT APT - 0 ft / 0 m 66.90794˚ -151.53869˚ 0 nm 293 nm 0° / 180° -

Altitude Profile

Advertisement - Login to hide

Weather


0- 5 10 15 20 25 30 35+ Temperature / ° C

Clouds and Precipitation
Forecast for 2018-05-25 00:00 UTC. Updated 3 hours ago

Ground ~20,000 ft ~40,000 ft Winds

PAUN

Details ICAO PAUN (UNK)
Name Unalakleet
Region USA (Alaska)
Timezone America/Anchorage (UTC-8.0)
Stats Elevation 68 ft / 21 m (AMSL)
Location 63.886590° -160.796931°
Runways 2
Magnetic Variation 12.023° E

METAR

PAUN 250156Z AUTO 33013G21KT 10SM RA FEW037 BKN060 OVC075 09/06 A2967 RMK AO2 RAB49 SLP050 P0001 T00940056

Decode

TAF

PAUN 242338Z 2500/2524 32015KT P6SM VCSH BKN050 FM250800 32010KT P6SM -SHRA BKN050

Decode

Departure Runways

ID Width Length Bearing (true) Bearing (mag) Surface Threshold Offset Overrun Length
15 151 ft / 46 m 5,990 ft / 1,826 m 164.15° 152.13° Asphalt 0 ft / 0 m 499 ft / 152 m
26 79 ft / 24 m 1,993 ft / 608 m 278.43° 266.41° Asphalt 0 ft / 0 m 0 ft / 0 m
33 151 ft / 46 m 5,990 ft / 1,826 m 344.16° 332.14° Asphalt 0 ft / 0 m 0 ft / 0 m
8 79 ft / 24 m 1,993 ft / 608 m 98.42° 86.40° Asphalt 0 ft / 0 m 0 ft / 0 m

PABT

Details ICAO PABT (BTT)
Name BETTLES
Region USA (Alaska)
Timezone America/Anchorage (UTC-8.0)
Stats Elevation 644 ft / 196 m (AMSL)
Location 66.913940° -151.529042°
Runways 1
Magnetic Variation 16.237° E

METAR

PABT 250153Z 29003KT 10SM FEW042 BKN070 18/02 A2961 RMK AO2 SLP034 T01780022

Decode

TAF

PABT 242338Z 2500/2524 01005KT P6SM VCTS BKN040CB FM250400 VRB06KT P6SM -SHRA BKN035

Decode

Destination Runways

ID Width Length Bearing (true) Bearing (mag) Surface Threshold Offset Overrun Length
01 150 ft / 46 m 5,174 ft / 1,577 m 32.24° 16.00° Gravel 0 ft / 0 m 0 ft / 0 m
19 150 ft / 46 m 5,174 ft / 1,577 m 212.26° 196.02° Gravel 0 ft / 0 m 0 ft / 0 m

Approach Navaids

Runway Type Ident Frequency Range Bearing (true) Bearing (mag) Slope Elevation
01 Localiser IBTT 108.70 MHz 18 nm / 33 km 32.79° 16.56° - 633 ft / 193 m (AMSL)
01 DME IBTT 108.70 MHz 18 nm / 33 km - - - 653 ft / 199 m (AMSL)